Lake Charles, LA

10:05 AM CDT on August 24, 2016 (GMT -0500)
LCB Academy | | Change Station
Active Advisory: Flood Warning

Elev 33 ft 30.22 °N, 93.20 °W | Updated 5 minutes ago

Mostly Cloudy
Mostly Cloudy
85.9 °F
Feels Like 98 °F
N
0.0
Wind Variable Wind from SSW
Gusts 1.0 mph

Today
High -- | Low -- °F
--% Chance of Precip.
Yesterday
High -- | Low -- °F
Precip. -- in
Pressure 30.15 in
Visibility 10.0 miles
Clouds Mostly Cloudy 1600 ft
Heat Index 98 °F
Dew Point 78 °F
Humidity 77%
Rainfall 0.00 in
Snow Depth Not available.
6:45 AM 7:44 PM
Waning Gibbous, 56% visible
METAR KCWF 241450Z 00000KT 10SM BKN016 31/26 A3015
Pressure 30.15 in
Visibility 10.0 miles
Clouds Mostly Cloudy 1600 ft
Heat Index 98 °F
Dew Point 78 °F
Humidity 77%
Rainfall 0.00 in
Snow Depth Not available.
6:45 AM 7:44 PM
Waning Gibbous, 56% visible
METAR KCWF 241450Z 00000KT 10SM BKN016 31/26 A3015

10-Day Weather Forecast

Almanac

Astronomy

Aug. 24, 2016 Rise Set
Actual Time
Civil Twilight
Nautical Twilight
Astronomical Twilight
Moon
Length of Visible Light
Length of Day
Tomorrow will be .
, % of the Moon is Illuminated

Today's Extremes

State Highs State Lows

Community

WunderPhotos

Upload Photos

1,934,615 photos uploaded!

WunderBlog® & News

Nearby

Air Quality

  Air Quality AQ Index Pollutant
Not available.

Snow Depth

Station Depth Elevation

Earthquake Activity

City Distance Mag. Time & Date
Minimum magnitude displayed is 2.5.

Coastal Water Temperatures

Place Temperature

Stations

Nearby Weather Stations

Station Location Temp. Windchill Dew Point Humidity Wind Precip. Elev Updated Type
                   

Watches & Warnings

Flood Warning
Issued: 9:05 PM CDT Aug. 23, 2016 – National Weather Service

The Flood Warning continues for
the Calcasieu River at Old Town Bay.
* Until further notice... or until the warning is cancelled.
* At 5:00 am Tuesday the stage was 5.5 feet.
* Minor flooding is occurring and minor flooding is forecast.
* Flood stage is 4.0 feet.
* Forecast... the river will continue to fall to a stage of 5.2 feet
by Thursday morning.
* Impact... at stages near 6.0 feet... goos Ferry Road becomes
impassable.
* Impact... at stages near 5.0 feet... water over lowest portions of
goos Ferry Road. Cars should be moved to higher ground.


Lat... Lon 3030 9329 3019 9321 3025 9308 3031 9303 3038 9314


13